sensor_id;sensor_type;location;lat;lon;timestamp;P1;durP1;ratioP1;P2;durP2;ratioP2
2784;SDS011;57944;48.722;9.316;2022-11-15T00:01:42;14.00;;;8.20;;
2784;SDS011;57944;48.722;9.316;2022-11-15T00:04:30;9.77;;;6.90;;
2784;SDS011;57944;48.722;9.316;2022-11-15T00:07:19;12.60;;;7.20;;
2784;SDS011;57944;48.722;9.316;2022-11-15T00:10:28;9.80;;;6.73;;
2784;SDS011;57944;48.722;9.316;2022-11-15T00:13:20;14.30;;;7.30;;
2784;SDS011;57944;48.722;9.316;2022-11-15T00:16:08;9.73;;;6.50;;
2784;SDS011;57944;48.722;9.316;2022-11-15T00:18:58;8.63;;;7.07;;
2784;SDS011;57944;48.722;9.316;2022-11-15T00:21:46;9.37;;;5.70;;
2784;SDS011;57944;48.722;9.316;2022-11-15T00:24:35;17.10;;;7.10;;
2784;SDS011;57944;48.722;9.316;2022-11-15T00:27:24;13.00;;;8.00;;
2784;SDS011;57944;48.722;9.316;2022-11-15T00:30:15;15.23;;;7.80;;
2784;SDS011;57944;48.722;9.316;2022-11-15T00:33:05;10.40;;;6.87;;
2784;SDS011;57944;48.722;9.316;2022-11-15T00:35:58;12.53;;;8.80;;
2784;SDS011;57944;48.722;9.316;2022-11-15T00:38:49;17.07;;;9.20;;
2784;SDS011;57944;48.722;9.316;2022-11-15T00:41:38;12.53;;;7.47;;
2784;SDS011;57944;48.722;9.316;2022-11-15T00:44:28;15.27;;;8.57;;
2784;SDS011;57944;48.722;9.316;2022-11-15T00:47:19;16.80;;;8.80;;
2784;SDS011;57944;48.722;9.316;2022-11-15T00:50:08;12.13;;;8.73;;
2784;SDS011;57944;48.722;9.316;2022-11-15T00:52:59;12.67;;;8.27;;
2784;SDS011;57944;48.722;9.316;2022-11-15T00:55:48;14.83;;;9.73;;
2784;SDS011;57944;48.722;9.316;2022-11-15T00:58:36;16.37;;;11.40;;
2784;SDS011;57944;48.722;9.316;2022-11-15T01:01:25;16.60;;;9.20;;
2784;SDS011;57944;48.722;9.316;2022-11-15T01:04:16;15.37;;;9.37;;
2784;SDS011;57944;48.722;9.316;2022-11-15T01:07:05;15.40;;;9.63;;
2784;SDS011;57944;48.722;9.316;2022-11-15T01:09:54;14.63;;;8.43;;
2784;SDS011;57944;48.722;9.316;2022-11-15T01:12:42;12.43;;;7.40;;
2784;SDS011;57944;48.722;9.316;2022-11-15T01:15:31;12.20;;;7.53;;
2784;SDS011;57944;48.722;9.316;2022-11-15T01:18:20;16.40;;;9.80;;
2784;SDS011;57944;48.722;9.316;2022-11-15T01:21:15;14.67;;;9.20;;
2784;SDS011;57944;48.722;9.316;2022-11-15T01:24:06;12.97;;;7.80;;
2784;SDS011;57944;48.722;9.316;2022-11-15T01:26:56;14.90;;;9.73;;
2784;SDS011;57944;48.722;9.316;2022-11-15T01:29:45;18.20;;;10.00;;
2784;SDS011;57944;48.722;9.316;2022-11-15T01:32:34;18.73;;;9.57;;
2784;SDS011;57944;48.722;9.316;2022-11-15T01:35:23;12.80;;;8.90;;
2784;SDS011;57944;48.722;9.316;2022-11-15T01:38:14;13.30;;;7.77;;
2784;SDS011;57944;48.722;9.316;2022-11-15T01:41:03;13.27;;;8.80;;
2784;SDS011;57944;48.722;9.316;2022-11-15T01:43:53;10.63;;;8.03;;
2784;SDS011;57944;48.722;9.316;2022-11-15T01:46:44;13.43;;;8.80;;
2784;SDS011;57944;48.722;9.316;2022-11-15T01:49:37;16.70;;;9.33;;
2784;SDS011;57944;48.722;9.316;2022-11-15T01:52:33;14.60;;;10.13;;
2784;SDS011;57944;48.722;9.316;2022-11-15T01:55:28;13.57;;;9.30;;
2784;SDS011;57944;48.722;9.316;2022-11-15T01:58:16;12.03;;;7.93;;
2784;SDS011;57944;48.722;9.316;2022-11-15T02:01:05;14.87;;;8.70;;
2784;SDS011;57944;48.722;9.316;2022-11-15T02:03:56;12.57;;;8.47;;
2784;SDS011;57944;48.722;9.316;2022-11-15T02:06:48;13.60;;;8.10;;
2784;SDS011;57944;48.722;9.316;2022-11-15T02:09:38;13.63;;;9.90;;
2784;SDS011;57944;48.722;9.316;2022-11-15T02:12:30;15.07;;;10.67;;
2784;SDS011;57944;48.722;9.316;2022-11-15T02:15:19;18.47;;;10.73;;
2784;SDS011;57944;48.722;9.316;2022-11-15T02:18:10;15.30;;;9.43;;
2784;SDS011;57944;48.722;9.316;2022-11-15T02:21:13;15.43;;;10.27;;
2784;SDS011;57944;48.722;9.316;2022-11-15T02:24:19;18.67;;;10.00;;
2784;SDS011;57944;48.722;9.316;2022-11-15T02:31:29;15.47;;;10.07;;
2784;SDS011;57944;48.722;9.316;2022-11-15T02:34:31;15.17;;;10.33;;
2784;SDS011;57944;48.722;9.316;2022-11-15T02:37:36;19.93;;;9.90;;
2784;SDS011;57944;48.722;9.316;2022-11-15T02:40:34;14.10;;;10.57;;
2784;SDS011;57944;48.722;9.316;2022-11-15T02:43:36;14.23;;;11.20;;
2784;SDS011;57944;48.722;9.316;2022-11-15T02:46:48;13.00;;;9.90;;
2784;SDS011;57944;48.722;9.316;2022-11-15T02:49:57;17.83;;;11.07;;
2784;SDS011;57944;48.722;9.316;2022-11-15T02:52:53;15.43;;;10.43;;
2784;SDS011;57944;48.722;9.316;2022-11-15T02:55:44;20.40;;;12.23;;
2784;SDS011;57944;48.722;9.316;2022-11-15T02:58:47;15.70;;;11.70;;
2784;SDS011;57944;48.722;9.316;2022-11-15T03:02:03;15.80;;;11.03;;
2784;SDS011;57944;48.722;9.316;2022-11-15T03:05:12;14.47;;;10.07;;
2784;SDS011;57944;48.722;9.316;2022-11-15T03:08:13;15.37;;;11.03;;
2784;SDS011;57944;48.722;9.316;2022-11-15T03:11:09;18.77;;;10.07;;
2784;SDS011;57944;48.722;9.316;2022-11-15T03:14:05;13.20;;;9.50;;
2784;SDS011;57944;48.722;9.316;2022-11-15T03:17:12;15.07;;;10.73;;
2784;SDS011;57944;48.722;9.316;2022-11-15T03:20:11;14.93;;;10.70;;
2784;SDS011;57944;48.722;9.316;2022-11-15T03:23:04;15.63;;;10.73;;
2784;SDS011;57944;48.722;9.316;2022-11-15T03:25:57;17.63;;;11.97;;
2784;SDS011;57944;48.722;9.316;2022-11-15T03:28:49;13.43;;;9.90;;
2784;SDS011;57944;48.722;9.316;2022-11-15T03:31:43;15.97;;;11.17;;
2784;SDS011;57944;48.722;9.316;2022-11-15T03:34:43;18.67;;;11.77;;
2784;SDS011;57944;48.722;9.316;2022-11-15T03:37:40;18.47;;;11.80;;
2784;SDS011;57944;48.722;9.316;2022-11-15T03:40:36;16.60;;;10.00;;
2784;SDS011;57944;48.722;9.316;2022-11-15T03:43:30;16.63;;;12.20;;
2784;SDS011;57944;48.722;9.316;2022-11-15T03:46:27;19.53;;;12.43;;
2784;SDS011;57944;48.722;9.316;2022-11-15T03:49:22;18.40;;;12.37;;
2784;SDS011;57944;48.722;9.316;2022-11-15T03:52:21;17.37;;;11.47;;
2784;SDS011;57944;48.722;9.316;2022-11-15T03:55:11;20.00;;;13.27;;
2784;SDS011;57944;48.722;9.316;2022-11-15T03:58:03;15.63;;;11.50;;
2784;SDS011;57944;48.722;9.316;2022-11-15T04:00:52;17.53;;;12.40;;
2784;SDS011;57944;48.722;9.316;2022-11-15T04:03:41;18.73;;;12.17;;
2784;SDS011;57944;48.722;9.316;2022-11-15T04:06:30;18.50;;;12.10;;
2784;SDS011;57944;48.722;9.316;2022-11-15T04:09:22;27.20;;;14.80;;
2784;SDS011;57944;48.722;9.316;2022-11-15T04:12:10;23.13;;;14.60;;
2784;SDS011;57944;48.722;9.316;2022-11-15T04:15:16;53.70;;;30.17;;
2784;SDS011;57944;48.722;9.316;2022-11-15T04:18:07;112.47;;;46.33;;
2784;SDS011;57944;48.722;9.316;2022-11-15T04:20:56;56.97;;;26.43;;
2784;SDS011;57944;48.722;9.316;2022-11-15T04:23:57;102.90;;;48.00;;
2784;SDS011;57944;48.722;9.316;2022-11-15T04:27:03;78.03;;;36.50;;
2784;SDS011;57944;48.722;9.316;2022-11-15T04:29:52;53.97;;;29.27;;
2784;SDS011;57944;48.722;9.316;2022-11-15T04:32:40;42.37;;;25.23;;
2784;SDS011;57944;48.722;9.316;2022-11-15T04:35:29;23.93;;;15.97;;
2784;SDS011;57944;48.722;9.316;2022-11-15T04:38:18;22.87;;;12.97;;
2784;SDS011;57944;48.722;9.316;2022-11-15T04:41:07;17.83;;;12.57;;
2784;SDS011;57944;48.722;9.316;2022-11-15T04:43:58;20.17;;;13.43;;
2784;SDS011;57944;48.722;9.316;2022-11-15T04:46:47;22.97;;;12.60;;
2784;SDS011;57944;48.722;9.316;2022-11-15T04:49:36;17.73;;;10.97;;
2784;SDS011;57944;48.722;9.316;2022-11-15T04:52:24;18.27;;;13.67;;
2784;SDS011;57944;48.722;9.316;2022-11-15T04:55:13;19.33;;;12.70;;
2784;SDS011;57944;48.722;9.316;2022-11-15T04:58:01;19.60;;;12.50;;
2784;SDS011;57944;48.722;9.316;2022-11-15T05:00:53;17.83;;;11.40;;
2784;SDS011;57944;48.722;9.316;2022-11-15T05:03:43;21.93;;;13.10;;
2784;SDS011;57944;48.722;9.316;2022-11-15T05:06:45;19.50;;;11.53;;
2784;SDS011;57944;48.722;9.316;2022-11-15T05:09:36;14.97;;;10.47;;
2784;SDS011;57944;48.722;9.316;2022-11-15T05:12:24;15.13;;;11.37;;
2784;SDS011;57944;48.722;9.316;2022-11-15T05:15:13;21.67;;;12.83;;
2784;SDS011;57944;48.722;9.316;2022-11-15T05:18:05;24.73;;;14.00;;
2784;SDS011;57944;48.722;9.316;2022-11-15T05:20:53;24.23;;;13.80;;
2784;SDS011;57944;48.722;9.316;2022-11-15T05:23:42;30.67;;;14.67;;
2784;SDS011;57944;48.722;9.316;2022-11-15T05:26:31;22.43;;;14.20;;
2784;SDS011;57944;48.722;9.316;2022-11-15T05:29:21;21.70;;;14.80;;
2784;SDS011;57944;48.722;9.316;2022-11-15T05:32:10;18.20;;;11.63;;
2784;SDS011;57944;48.722;9.316;2022-11-15T05:35:02;16.60;;;11.50;;
2784;SDS011;57944;48.722;9.316;2022-11-15T05:37:56;23.93;;;12.87;;
2784;SDS011;57944;48.722;9.316;2022-11-15T05:40:45;18.27;;;11.33;;
2784;SDS011;57944;48.722;9.316;2022-11-15T05:43:34;19.00;;;13.37;;
2784;SDS011;57944;48.722;9.316;2022-11-15T05:46:27;15.83;;;10.10;;
2784;SDS011;57944;48.722;9.316;2022-11-15T05:49:17;24.20;;;12.20;;
2784;SDS011;57944;48.722;9.316;2022-11-15T05:52:15;17.80;;;11.90;;
2784;SDS011;57944;48.722;9.316;2022-11-15T05:55:10;14.47;;;10.50;;
2784;SDS011;57944;48.722;9.316;2022-11-15T05:57:59;16.73;;;11.33;;
2784;SDS011;57944;48.722;9.316;2022-11-15T06:00:48;23.23;;;12.30;;
2784;SDS011;57944;48.722;9.316;2022-11-15T06:03:37;16.10;;;10.57;;
2784;SDS011;57944;48.722;9.316;2022-11-15T06:06:27;16.20;;;11.60;;
2784;SDS011;57944;48.722;9.316;2022-11-15T06:09:18;20.07;;;12.47;;
2784;SDS011;57944;48.722;9.316;2022-11-15T06:12:07;17.80;;;11.97;;
2784;SDS011;57944;48.722;9.316;2022-11-15T06:14:56;18.60;;;12.67;;
2784;SDS011;57944;48.722;9.316;2022-11-15T06:17:44;19.00;;;10.50;;
2784;SDS011;57944;48.722;9.316;2022-11-15T06:20:33;16.80;;;9.77;;
2784;SDS011;57944;48.722;9.316;2022-11-15T06:23:22;18.20;;;13.23;;
2784;SDS011;57944;48.722;9.316;2022-11-15T06:26:14;27.00;;;11.47;;
2784;SDS011;57944;48.722;9.316;2022-11-15T06:29:03;15.73;;;10.37;;
2784;SDS011;57944;48.722;9.316;2022-11-15T06:31:53;18.70;;;11.50;;
2784;SDS011;57944;48.722;9.316;2022-11-15T06:34:42;22.63;;;12.60;;
2784;SDS011;57944;48.722;9.316;2022-11-15T06:37:30;12.93;;;10.10;;
2784;SDS011;57944;48.722;9.316;2022-11-15T06:40:19;17.57;;;10.47;;
2784;SDS011;57944;48.722;9.316;2022-11-15T06:43:10;17.50;;;12.27;;
2784;SDS011;57944;48.722;9.316;2022-11-15T06:45:59;19.27;;;13.17;;
2784;SDS011;57944;48.722;9.316;2022-11-15T06:48:50;19.23;;;11.50;;
2784;SDS011;57944;48.722;9.316;2022-11-15T06:51:39;19.40;;;12.40;;
2784;SDS011;57944;48.722;9.316;2022-11-15T06:54:27;12.63;;;10.40;;
2784;SDS011;57944;48.722;9.316;2022-11-15T06:57:16;16.43;;;10.13;;
2784;SDS011;57944;48.722;9.316;2022-11-15T07:00:08;17.87;;;12.03;;
2784;SDS011;57944;48.722;9.316;2022-11-15T07:03:00;20.97;;;13.03;;
2784;SDS011;57944;48.722;9.316;2022-11-15T07:05:52;18.77;;;11.97;;
2784;SDS011;57944;48.722;9.316;2022-11-15T07:08:51;18.73;;;12.07;;
2784;SDS011;57944;48.722;9.316;2022-11-15T07:11:40;16.33;;;11.47;;
2784;SDS011;57944;48.722;9.316;2022-11-15T07:14:28;25.07;;;14.07;;
2784;SDS011;57944;48.722;9.316;2022-11-15T07:17:20;19.40;;;13.23;;
2784;SDS011;57944;48.722;9.316;2022-11-15T07:20:09;23.70;;;13.23;;
2784;SDS011;57944;48.722;9.316;2022-11-15T07:23:01;34.07;;;17.50;;
2784;SDS011;57944;48.722;9.316;2022-11-15T07:25:51;22.90;;;13.80;;
2784;SDS011;57944;48.722;9.316;2022-11-15T07:28:39;18.23;;;12.63;;
2784;SDS011;57944;48.722;9.316;2022-11-15T07:31:28;26.73;;;14.83;;
2784;SDS011;57944;48.722;9.316;2022-11-15T07:34:20;58.90;;;34.70;;
2784;SDS011;57944;48.722;9.316;2022-11-15T07:37:08;40.30;;;23.73;;
2784;SDS011;57944;48.722;9.316;2022-11-15T07:39:58;46.93;;;26.50;;
2784;SDS011;57944;48.722;9.316;2022-11-15T07:42:47;35.20;;;20.77;;
2784;SDS011;57944;48.722;9.316;2022-11-15T07:45:42;23.80;;;14.23;;
2784;SDS011;57944;48.722;9.316;2022-11-15T07:48:32;19.00;;;13.93;;
2784;SDS011;57944;48.722;9.316;2022-11-15T07:51:31;19.50;;;14.67;;
2784;SDS011;57944;48.722;9.316;2022-11-15T07:54:20;27.17;;;13.70;;
2784;SDS011;57944;48.722;9.316;2022-11-15T07:57:09;24.57;;;16.70;;
2784;SDS011;57944;48.722;9.316;2022-11-15T07:59:57;26.87;;;17.53;;
2784;SDS011;57944;48.722;9.316;2022-11-15T08:02:46;42.70;;;26.40;;
2784;SDS011;57944;48.722;9.316;2022-11-15T08:05:35;48.57;;;25.17;;
2784;SDS011;57944;48.722;9.316;2022-11-15T08:08:30;31.40;;;22.83;;
2784;SDS011;57944;48.722;9.316;2022-11-15T08:11:19;28.93;;;20.53;;
2784;SDS011;57944;48.722;9.316;2022-11-15T08:14:08;19.27;;;15.73;;
2784;SDS011;57944;48.722;9.316;2022-11-15T08:16:56;15.60;;;12.43;;
2784;SDS011;57944;48.722;9.316;2022-11-15T08:19:45;22.73;;;13.30;;
2784;SDS011;57944;48.722;9.316;2022-11-15T08:22:33;20.70;;;11.90;;
2784;SDS011;57944;48.722;9.316;2022-11-15T08:25:25;15.13;;;11.07;;
2784;SDS011;57944;48.722;9.316;2022-11-15T08:28:16;13.80;;;10.20;;
2784;SDS011;57944;48.722;9.316;2022-11-15T08:31:06;23.77;;;10.97;;
2784;SDS011;57944;48.722;9.316;2022-11-15T08:34:02;21.70;;;11.33;;
2784;SDS011;57944;48.722;9.316;2022-11-15T08:36:51;17.77;;;10.73;;
2784;SDS011;57944;48.722;9.316;2022-11-15T08:39:40;18.43;;;10.23;;
2784;SDS011;57944;48.722;9.316;2022-11-15T08:42:31;18.50;;;10.37;;
2784;SDS011;57944;48.722;9.316;2022-11-15T08:45:21;14.30;;;10.63;;
2784;SDS011;57944;48.722;9.316;2022-11-15T08:48:09;12.40;;;10.10;;
2784;SDS011;57944;48.722;9.316;2022-11-15T08:50:58;23.00;;;13.70;;
2784;SDS011;57944;48.722;9.316;2022-11-15T08:53:47;23.93;;;11.80;;
2784;SDS011;57944;48.722;9.316;2022-11-15T08:56:36;19.60;;;11.67;;
2784;SDS011;57944;48.722;9.316;2022-11-15T08:59:27;22.20;;;11.50;;
2784;SDS011;57944;48.722;9.316;2022-11-15T09:02:16;20.27;;;11.17;;
2784;SDS011;57944;48.722;9.316;2022-11-15T09:05:06;21.40;;;11.57;;
2784;SDS011;57944;48.722;9.316;2022-11-15T09:07:56;16.03;;;9.83;;
2784;SDS011;57944;48.722;9.316;2022-11-15T09:10:53;25.43;;;10.63;;
2784;SDS011;57944;48.722;9.316;2022-11-15T09:13:42;14.90;;;10.07;;
2784;SDS011;57944;48.722;9.316;2022-11-15T09:16:33;21.20;;;10.87;;
2784;SDS011;57944;48.722;9.316;2022-11-15T09:19:22;12.77;;;9.40;;
2784;SDS011;57944;48.722;9.316;2022-11-15T09:22:11;21.77;;;10.23;;
2784;SDS011;57944;48.722;9.316;2022-11-15T09:24:59;14.67;;;9.37;;
2784;SDS011;57944;48.722;9.316;2022-11-15T09:27:53;18.63;;;10.20;;
2784;SDS011;57944;48.722;9.316;2022-11-15T09:30:42;15.67;;;9.60;;
2784;SDS011;57944;48.722;9.316;2022-11-15T09:33:33;20.07;;;10.80;;
2784;SDS011;57944;48.722;9.316;2022-11-15T09:36:23;17.13;;;10.50;;
2784;SDS011;57944;48.722;9.316;2022-11-15T09:39:12;15.83;;;10.10;;
2784;SDS011;57944;48.722;9.316;2022-11-15T09:42:07;17.90;;;10.40;;
2784;SDS011;57944;48.722;9.316;2022-11-15T09:45:16;15.13;;;9.70;;
2784;SDS011;57944;48.722;9.316;2022-11-15T09:48:19;15.20;;;9.90;;
2784;SDS011;57944;48.722;9.316;2022-11-15T09:51:25;18.90;;;11.03;;
2784;SDS011;57944;48.722;9.316;2022-11-15T09:54:01;16.03;;;9.50;;
2784;SDS011;57944;48.722;9.316;2022-11-15T09:57:03;12.93;;;8.80;;
2784;SDS011;57944;48.722;9.316;2022-11-15T09:59:46;12.07;;;8.93;;
2784;SDS011;57944;48.722;9.316;2022-11-15T10:02:58;15.87;;;9.30;;
2784;SDS011;57944;48.722;9.316;2022-11-15T10:05:42;14.90;;;10.17;;
2784;SDS011;57944;48.722;9.316;2022-11-15T10:08:28;23.53;;;11.37;;
2784;SDS011;57944;48.722;9.316;2022-11-15T10:11:15;18.10;;;11.03;;
2784;SDS011;57944;48.722;9.316;2022-11-15T10:14:09;15.17;;;11.00;;
2784;SDS011;57944;48.722;9.316;2022-11-15T10:16:57;14.70;;;10.70;;
2784;SDS011;57944;48.722;9.316;2022-11-15T10:19:53;16.20;;;11.37;;
2784;SDS011;57944;48.722;9.316;2022-11-15T10:22:43;12.80;;;9.37;;
2784;SDS011;57944;48.722;9.316;2022-11-15T10:25:18;14.77;;;9.40;;
2784;SDS011;57944;48.722;9.316;2022-11-15T10:27:54;14.70;;;7.97;;
2784;SDS011;57944;48.722;9.316;2022-11-15T10:30:32;15.30;;;9.27;;
2784;SDS011;57944;48.722;9.316;2022-11-15T10:33:10;16.80;;;9.23;;
2784;SDS011;57944;48.722;9.316;2022-11-15T10:38:58;11.03;;;7.77;;
2784;SDS011;57944;48.722;9.316;2022-11-15T10:41:29;14.97;;;9.70;;
2784;SDS011;57944;48.722;9.316;2022-11-15T10:44:21;15.43;;;10.60;;
2784;SDS011;57944;48.722;9.316;2022-11-15T10:47:06;14.80;;;9.77;;
2784;SDS011;57944;48.722;9.316;2022-11-15T10:49:57;14.80;;;10.63;;
2784;SDS011;57944;48.722;9.316;2022-11-15T10:52:31;14.77;;;10.00;;
2784;SDS011;57944;48.722;9.316;2022-11-15T10:55:20;19.17;;;9.83;;
2784;SDS011;57944;48.722;9.316;2022-11-15T10:57:56;13.10;;;9.70;;
2784;SDS011;57944;48.722;9.316;2022-11-15T11:00:36;16.73;;;8.57;;
2784;SDS011;57944;48.722;9.316;2022-11-15T11:03:20;22.60;;;8.97;;
2784;SDS011;57944;48.722;9.316;2022-11-15T11:06:05;10.90;;;6.83;;
2784;SDS011;57944;48.722;9.316;2022-11-15T11:08:38;7.70;;;6.07;;
2784;SDS011;57944;48.722;9.316;2022-11-15T11:11:12;11.20;;;7.03;;
2784;SDS011;57944;48.722;9.316;2022-11-15T11:13:42;10.13;;;6.67;;
2784;SDS011;57944;48.722;9.316;2022-11-15T11:16:20;16.13;;;7.43;;
2784;SDS011;57944;48.722;9.316;2022-11-15T11:19:15;14.37;;;7.50;;
2784;SDS011;57944;48.722;9.316;2022-11-15T11:22:12;13.10;;;7.87;;
2784;SDS011;57944;48.722;9.316;2022-11-15T11:24:55;9.90;;;7.83;;
2784;SDS011;57944;48.722;9.316;2022-11-15T11:27:46;10.63;;;7.37;;
2784;SDS011;57944;48.722;9.316;2022-11-15T11:30:39;10.80;;;7.13;;
2784;SDS011;57944;48.722;9.316;2022-11-15T11:33:20;20.20;;;10.13;;
2784;SDS011;57944;48.722;9.316;2022-11-15T11:35:59;14.27;;;7.90;;
2784;SDS011;57944;48.722;9.316;2022-11-15T11:38:52;11.40;;;7.80;;
2784;SDS011;57944;48.722;9.316;2022-11-15T11:41:53;12.03;;;7.30;;
2784;SDS011;57944;48.722;9.316;2022-11-15T11:44:37;14.03;;;7.73;;
2784;SDS011;57944;48.722;9.316;2022-11-15T11:47:22;10.93;;;6.40;;
2784;SDS011;57944;48.722;9.316;2022-11-15T11:49:57;8.80;;;6.60;;
2784;SDS011;57944;48.722;9.316;2022-11-15T11:52:37;10.33;;;6.53;;
2784;SDS011;57944;48.722;9.316;2022-11-15T11:55:14;13.50;;;6.50;;
2784;SDS011;57944;48.722;9.316;2022-11-15T11:57:50;8.77;;;6.57;;
2784;SDS011;57944;48.722;9.316;2022-11-15T12:00:35;9.57;;;7.50;;
2784;SDS011;57944;48.722;9.316;2022-11-15T12:03:11;11.13;;;6.83;;
2784;SDS011;57944;48.722;9.316;2022-11-15T12:05:51;11.30;;;7.90;;
2784;SDS011;57944;48.722;9.316;2022-11-15T12:08:31;11.33;;;7.27;;
2784;SDS011;57944;48.722;9.316;2022-11-15T12:11:12;10.87;;;9.00;;
2784;SDS011;57944;48.722;9.316;2022-11-15T12:13:50;15.00;;;8.10;;
2784;SDS011;57944;48.722;9.316;2022-11-15T12:16:31;12.70;;;8.40;;
2784;SDS011;57944;48.722;9.316;2022-11-15T12:19:03;13.53;;;8.10;;
2784;SDS011;57944;48.722;9.316;2022-11-15T12:21:35;10.13;;;8.27;;
2784;SDS011;57944;48.722;9.316;2022-11-15T12:24:14;11.83;;;8.37;;
2784;SDS011;57944;48.722;9.316;2022-11-15T12:26:52;9.70;;;6.03;;
2784;SDS011;57944;48.722;9.316;2022-11-15T12:29:31;9.60;;;6.50;;
2784;SDS011;57944;48.722;9.316;2022-11-15T12:32:14;13.60;;;8.30;;
2784;SDS011;57944;48.722;9.316;2022-11-15T12:34:56;11.93;;;7.43;;
2784;SDS011;57944;48.722;9.316;2022-11-15T12:40:35;13.37;;;8.63;;
2784;SDS011;57944;48.722;9.316;2022-11-15T12:46:12;14.43;;;7.20;;
2784;SDS011;57944;48.722;9.316;2022-11-15T12:48:54;14.20;;;7.80;;
2784;SDS011;57944;48.722;9.316;2022-11-15T12:54:49;17.07;;;10.33;;
2784;SDS011;57944;48.722;9.316;2022-11-15T12:57:39;14.77;;;8.87;;
2784;SDS011;57944;48.722;9.316;2022-11-15T13:03:18;17.37;;;10.33;;
2784;SDS011;57944;48.722;9.316;2022-11-15T13:06:08;17.77;;;9.90;;
2784;SDS011;57944;48.722;9.316;2022-11-15T13:15:36;12.60;;;8.50;;
2784;SDS011;57944;48.722;9.316;2022-11-15T13:18:32;10.60;;;9.40;;
2784;SDS011;57944;48.722;9.316;2022-11-15T13:21:21;16.30;;;10.13;;
2784;SDS011;57944;48.722;9.316;2022-11-15T13:24:12;15.17;;;9.40;;
2784;SDS011;57944;48.722;9.316;2022-11-15T13:26:45;17.27;;;9.03;;
2784;SDS011;57944;48.722;9.316;2022-11-15T13:29:16;16.37;;;7.40;;
2784;SDS011;57944;48.722;9.316;2022-11-15T13:31:48;13.67;;;8.37;;
2784;SDS011;57944;48.722;9.316;2022-11-15T13:34:27;11.10;;;8.33;;
2784;SDS011;57944;48.722;9.316;2022-11-15T13:37:28;15.20;;;10.43;;
2784;SDS011;57944;48.722;9.316;2022-11-15T13:40:15;16.80;;;10.00;;
2784;SDS011;57944;48.722;9.316;2022-11-15T13:42:56;13.40;;;8.03;;
2784;SDS011;57944;48.722;9.316;2022-11-15T13:45:27;14.77;;;8.90;;
2784;SDS011;57944;48.722;9.316;2022-11-15T13:47:57;15.47;;;8.53;;
2784;SDS011;57944;48.722;9.316;2022-11-15T13:50:28;14.60;;;8.00;;
2784;SDS011;57944;48.722;9.316;2022-11-15T13:53:04;17.10;;;9.00;;
2784;SDS011;57944;48.722;9.316;2022-11-15T13:55:37;14.53;;;8.80;;
2784;SDS011;57944;48.722;9.316;2022-11-15T13:58:08;21.50;;;10.20;;
2784;SDS011;57944;48.722;9.316;2022-11-15T14:00:40;18.43;;;10.50;;
2784;SDS011;57944;48.722;9.316;2022-11-15T14:03:16;16.97;;;10.73;;
2784;SDS011;57944;48.722;9.316;2022-11-15T14:06:04;19.10;;;9.27;;
2784;SDS011;57944;48.722;9.316;2022-11-15T14:08:38;10.30;;;8.30;;
2784;SDS011;57944;48.722;9.316;2022-11-15T14:11:15;10.10;;;7.70;;
2784;SDS011;57944;48.722;9.316;2022-11-15T14:14:03;13.23;;;6.93;;
2784;SDS011;57944;48.722;9.316;2022-11-15T14:16:42;12.57;;;7.90;;
2784;SDS011;57944;48.722;9.316;2022-11-15T14:22:17;11.87;;;8.30;;
2784;SDS011;57944;48.722;9.316;2022-11-15T14:28:07;14.10;;;7.10;;
2784;SDS011;57944;48.722;9.316;2022-11-15T14:30:42;12.40;;;7.60;;
2784;SDS011;57944;48.722;9.316;2022-11-15T14:33:21;14.33;;;9.30;;
2784;SDS011;57944;48.722;9.316;2022-11-15T14:35:57;15.60;;;9.17;;
2784;SDS011;57944;48.722;9.316;2022-11-15T14:38:32;15.00;;;9.03;;
2784;SDS011;57944;48.722;9.316;2022-11-15T14:41:02;13.50;;;10.10;;
2784;SDS011;57944;48.722;9.316;2022-11-15T14:43:36;21.73;;;9.93;;
2784;SDS011;57944;48.722;9.316;2022-11-15T14:46:06;16.43;;;8.97;;
2784;SDS011;57944;48.722;9.316;2022-11-15T14:48:36;13.83;;;9.00;;
2784;SDS011;57944;48.722;9.316;2022-11-15T14:51:09;13.27;;;8.13;;
2784;SDS011;57944;48.722;9.316;2022-11-15T14:53:43;12.57;;;8.77;;
2784;SDS011;57944;48.722;9.316;2022-11-15T14:56:15;12.00;;;9.10;;
2784;SDS011;57944;48.722;9.316;2022-11-15T14:58:48;14.70;;;10.40;;
2784;SDS011;57944;48.722;9.316;2022-11-15T15:01:19;19.03;;;9.80;;
2784;SDS011;57944;48.722;9.316;2022-11-15T15:03:52;16.17;;;10.27;;
2784;SDS011;57944;48.722;9.316;2022-11-15T15:06:24;13.20;;;11.50;;
2784;SDS011;57944;48.722;9.316;2022-11-15T15:08:57;16.50;;;11.73;;
2784;SDS011;57944;48.722;9.316;2022-11-15T15:11:27;15.90;;;11.13;;
2784;SDS011;57944;48.722;9.316;2022-11-15T15:14:02;14.30;;;10.23;;
2784;SDS011;57944;48.722;9.316;2022-11-15T15:16:33;15.33;;;10.10;;
2784;SDS011;57944;48.722;9.316;2022-11-15T15:19:04;13.60;;;9.17;;
2784;SDS011;57944;48.722;9.316;2022-11-15T15:21:34;14.17;;;10.07;;
2784;SDS011;57944;48.722;9.316;2022-11-15T15:24:04;19.53;;;9.90;;
2784;SDS011;57944;48.722;9.316;2022-11-15T15:26:35;12.07;;;8.70;;
2784;SDS011;57944;48.722;9.316;2022-11-15T15:29:08;15.43;;;10.33;;
2784;SDS011;57944;48.722;9.316;2022-11-15T15:31:39;17.10;;;11.30;;
2784;SDS011;57944;48.722;9.316;2022-11-15T15:34:09;18.43;;;11.67;;
2784;SDS011;57944;48.722;9.316;2022-11-15T15:36:42;15.73;;;10.17;;
2784;SDS011;57944;48.722;9.316;2022-11-15T15:39:12;17.70;;;9.80;;
2784;SDS011;57944;48.722;9.316;2022-11-15T15:41:42;12.53;;;10.70;;
2784;SDS011;57944;48.722;9.316;2022-11-15T15:44:15;17.73;;;12.70;;
2784;SDS011;57944;48.722;9.316;2022-11-15T15:46:45;20.10;;;13.03;;
2784;SDS011;57944;48.722;9.316;2022-11-15T15:49:15;23.30;;;13.03;;
2784;SDS011;57944;48.722;9.316;2022-11-15T15:51:45;26.17;;;12.03;;
2784;SDS011;57944;48.722;9.316;2022-11-15T15:54:15;20.23;;;12.70;;
2784;SDS011;57944;48.722;9.316;2022-11-15T15:56:45;16.93;;;10.77;;
2784;SDS011;57944;48.722;9.316;2022-11-15T15:59:24;19.20;;;13.20;;
2784;SDS011;57944;48.722;9.316;2022-11-15T16:01:54;38.33;;;23.20;;
2784;SDS011;57944;48.722;9.316;2022-11-15T16:04:24;30.03;;;17.50;;
2784;SDS011;57944;48.722;9.316;2022-11-15T16:06:57;21.83;;;15.80;;
2784;SDS011;57944;48.722;9.316;2022-11-15T16:09:30;19.27;;;10.50;;
2784;SDS011;57944;48.722;9.316;2022-11-15T16:12:13;16.13;;;10.70;;
2784;SDS011;57944;48.722;9.316;2022-11-15T16:14:45;11.40;;;9.40;;
2784;SDS011;57944;48.722;9.316;2022-11-15T16:17:16;16.67;;;11.90;;
2784;SDS011;57944;48.722;9.316;2022-11-15T16:19:50;18.83;;;11.73;;
2784;SDS011;57944;48.722;9.316;2022-11-15T16:22:20;13.30;;;9.73;;
2784;SDS011;57944;48.722;9.316;2022-11-15T16:24:51;16.80;;;11.40;;
2784;SDS011;57944;48.722;9.316;2022-11-15T16:27:21;19.17;;;11.50;;
2784;SDS011;57944;48.722;9.316;2022-11-15T16:29:54;14.93;;;11.33;;
2784;SDS011;57944;48.722;9.316;2022-11-15T16:32:24;12.63;;;9.93;;
2784;SDS011;57944;48.722;9.316;2022-11-15T16:34:54;16.60;;;10.70;;
2784;SDS011;57944;48.722;9.316;2022-11-15T16:37:27;22.50;;;11.47;;
2784;SDS011;57944;48.722;9.316;2022-11-15T16:39:57;16.53;;;10.60;;
2784;SDS011;57944;48.722;9.316;2022-11-15T16:42:27;16.77;;;11.87;;
2784;SDS011;57944;48.722;9.316;2022-11-15T16:45:00;19.73;;;13.20;;
2784;SDS011;57944;48.722;9.316;2022-11-15T16:47:30;16.30;;;12.53;;
2784;SDS011;57944;48.722;9.316;2022-11-15T16:50:00;15.27;;;10.60;;
2784;SDS011;57944;48.722;9.316;2022-11-15T16:52:30;15.17;;;11.73;;
2784;SDS011;57944;48.722;9.316;2022-11-15T16:55:00;25.07;;;12.00;;
2784;SDS011;57944;48.722;9.316;2022-11-15T16:57:30;25.40;;;14.70;;
2784;SDS011;57944;48.722;9.316;2022-11-15T17:00:03;14.40;;;9.80;;
2784;SDS011;57944;48.722;9.316;2022-11-15T17:02:35;15.13;;;9.97;;
2784;SDS011;57944;48.722;9.316;2022-11-15T17:05:05;19.50;;;11.57;;